sensor_id;sensor_type;location;lat;lon;timestamp;temperature;humidity
13256;DHT22;37913;48.370;10.930;2022-11-11T00:01:28;3.40;99.90
13256;DHT22;37913;48.370;10.930;2022-11-11T00:03:55;3.30;99.90
13256;DHT22;37913;48.370;10.930;2022-11-11T00:06:22;3.20;99.90
13256;DHT22;37913;48.370;10.930;2022-11-11T00:08:51;3.40;99.90
13256;DHT22;37913;48.370;10.930;2022-11-11T00:11:19;3.10;99.90
13256;DHT22;37913;48.370;10.930;2022-11-11T00:13:46;3.00;99.90
13256;DHT22;37913;48.370;10.930;2022-11-11T00:16:16;3.00;99.90
13256;DHT22;37913;48.370;10.930;2022-11-11T00:18:44;3.10;99.90
13256;DHT22;37913;48.370;10.930;2022-11-11T00:21:29;2.90;99.90
13256;DHT22;37913;48.370;10.930;2022-11-11T00:24:23;2.90;99.90
13256;DHT22;37913;48.370;10.930;2022-11-11T00:27:09;2.90;99.90
13256;DHT22;37913;48.370;10.930;2022-11-11T00:29:37;3.10;99.90
13256;DHT22;37913;48.370;10.930;2022-11-11T00:32:05;3.30;99.90
13256;DHT22;37913;48.370;10.930;2022-11-11T00:34:55;3.30;99.90
13256;DHT22;37913;48.370;10.930;2022-11-11T00:37:40;3.20;99.90
13256;DHT22;37913;48.370;10.930;2022-11-11T00:40:09;3.20;99.90
13256;DHT22;37913;48.370;10.930;2022-11-11T00:42:37;3.20;99.90
13256;DHT22;37913;48.370;10.930;2022-11-11T00:45:06;3.30;99.90
13256;DHT22;37913;48.370;10.930;2022-11-11T00:47:33;3.40;99.90
13256;DHT22;37913;48.370;10.930;2022-11-11T00:50:18;3.50;99.90
13256;DHT22;37913;48.370;10.930;2022-11-11T00:53:08;3.50;99.90
13256;DHT22;37913;48.370;10.930;2022-11-11T00:55:35;3.50;99.90
13256;DHT22;37913;48.370;10.930;2022-11-11T00:58:04;3.50;99.90
13256;DHT22;37913;48.370;10.930;2022-11-11T01:00:31;3.50;99.90
13256;DHT22;37913;48.370;10.930;2022-11-11T01:02:58;3.40;99.90
13256;DHT22;37913;48.370;10.930;2022-11-11T01:05:25;3.40;99.90
13256;DHT22;37913;48.370;10.930;2022-11-11T01:07:52;3.20;99.90
13256;DHT22;37913;48.370;10.930;2022-11-11T01:10:21;3.10;99.90
13256;DHT22;37913;48.370;10.930;2022-11-11T01:13:11;2.90;99.90
13256;DHT22;37913;48.370;10.930;2022-11-11T01:15:39;2.90;99.90
13256;DHT22;37913;48.370;10.930;2022-11-11T01:18:06;3.10;99.90
13256;DHT22;37913;48.370;10.930;2022-11-11T01:20:37;3.20;99.90
13256;DHT22;37913;48.370;10.930;2022-11-11T01:23:05;3.00;99.90
13256;DHT22;37913;48.370;10.930;2022-11-11T01:25:33;3.30;99.90
13256;DHT22;37913;48.370;10.930;2022-11-11T01:28:00;3.10;99.90
13256;DHT22;37913;48.370;10.930;2022-11-11T01:30:30;3.00;99.90
13256;DHT22;37913;48.370;10.930;2022-11-11T01:32:58;3.00;99.90
13256;DHT22;37913;48.370;10.930;2022-11-11T01:35:25;3.70;99.90
13256;DHT22;37913;48.370;10.930;2022-11-11T01:37:52;2.70;99.90
13256;DHT22;37913;48.370;10.930;2022-11-11T01:40:19;3.40;99.90
13256;DHT22;37913;48.370;10.930;2022-11-11T01:42:47;2.60;99.90
13256;DHT22;37913;48.370;10.930;2022-11-11T01:45:54;2.50;99.90
13256;DHT22;37913;48.370;10.930;2022-11-11T01:48:32;2.40;99.90
13256;DHT22;37913;48.370;10.930;2022-11-11T01:51:26;2.50;99.90
13256;DHT22;37913;48.370;10.930;2022-11-11T01:53:57;2.60;99.90
13256;DHT22;37913;48.370;10.930;2022-11-11T01:56:26;2.50;99.90
13256;DHT22;37913;48.370;10.930;2022-11-11T01:58:56;2.40;99.90
13256;DHT22;37913;48.370;10.930;2022-11-11T02:01:25;2.30;99.90
13256;DHT22;37913;48.370;10.930;2022-11-11T02:03:53;2.40;99.90
13256;DHT22;37913;48.370;10.930;2022-11-11T02:06:39;2.40;99.90
13256;DHT22;37913;48.370;10.930;2022-11-11T02:09:07;2.30;99.90
13256;DHT22;37913;48.370;10.930;2022-11-11T02:11:35;2.30;99.90
13256;DHT22;37913;48.370;10.930;2022-11-11T02:14:21;2.30;99.90
13256;DHT22;37913;48.370;10.930;2022-11-11T02:17:08;2.30;99.90
13256;DHT22;37913;48.370;10.930;2022-11-11T02:19:42;2.10;99.90
13256;DHT22;37913;48.370;10.930;2022-11-11T02:22:13;2.20;99.90
13256;DHT22;37913;48.370;10.930;2022-11-11T02:24:43;2.20;99.90
13256;DHT22;37913;48.370;10.930;2022-11-11T02:27:13;2.20;99.90
13256;DHT22;37913;48.370;10.930;2022-11-11T02:29:42;2.20;99.90
13256;DHT22;37913;48.370;10.930;2022-11-11T02:32:10;2.20;99.90
13256;DHT22;37913;48.370;10.930;2022-11-11T02:34:37;2.40;99.90
13256;DHT22;37913;48.370;10.930;2022-11-11T02:37:07;2.40;99.90
13256;DHT22;37913;48.370;10.930;2022-11-11T02:39:39;2.30;99.90
13256;DHT22;37913;48.370;10.930;2022-11-11T02:42:09;2.10;99.90
13256;DHT22;37913;48.370;10.930;2022-11-11T02:44:38;2.10;99.90
13256;DHT22;37913;48.370;10.930;2022-11-11T02:47:06;2.20;99.90
13256;DHT22;37913;48.370;10.930;2022-11-11T02:49:33;2.40;99.90
13256;DHT22;37913;48.370;10.930;2022-11-11T02:51:59;2.50;99.90
13256;DHT22;37913;48.370;10.930;2022-11-11T02:54:26;2.30;99.90
13256;DHT22;37913;48.370;10.930;2022-11-11T02:56:53;2.20;99.90
13256;DHT22;37913;48.370;10.930;2022-11-11T02:59:34;2.10;99.90
13256;DHT22;37913;48.370;10.930;2022-11-11T03:02:02;2.10;99.90
13256;DHT22;37913;48.370;10.930;2022-11-11T03:04:29;2.20;99.90
13256;DHT22;37913;48.370;10.930;2022-11-11T03:06:56;2.30;99.90
13256;DHT22;37913;48.370;10.930;2022-11-11T03:09:22;2.20;99.90
13256;DHT22;37913;48.370;10.930;2022-11-11T03:11:49;2.10;99.90
13256;DHT22;37913;48.370;10.930;2022-11-11T03:14:16;2.10;99.90
13256;DHT22;37913;48.370;10.930;2022-11-11T03:16:45;2.00;99.90
13256;DHT22;37913;48.370;10.930;2022-11-11T03:19:29;1.90;99.90
13256;DHT22;37913;48.370;10.930;2022-11-11T03:21:57;1.90;99.90
13256;DHT22;37913;48.370;10.930;2022-11-11T03:24:23;2.00;99.90
13256;DHT22;37913;48.370;10.930;2022-11-11T03:27:10;2.00;99.90
13256;DHT22;37913;48.370;10.930;2022-11-11T03:29:38;1.90;99.90
13256;DHT22;37913;48.370;10.930;2022-11-11T03:32:07;2.00;99.90
13256;DHT22;37913;48.370;10.930;2022-11-11T03:34:35;2.00;99.90
13256;DHT22;37913;48.370;10.930;2022-11-11T03:37:02;1.90;99.90
13256;DHT22;37913;48.370;10.930;2022-11-11T03:39:47;2.30;99.90
13256;DHT22;37913;48.370;10.930;2022-11-11T03:42:14;1.80;99.90
13256;DHT22;37913;48.370;10.930;2022-11-11T03:44:40;1.70;99.90
13256;DHT22;37913;48.370;10.930;2022-11-11T03:47:09;1.60;99.90
13256;DHT22;37913;48.370;10.930;2022-11-11T03:49:36;1.70;99.90
13256;DHT22;37913;48.370;10.930;2022-11-11T03:52:03;1.80;99.90
13256;DHT22;37913;48.370;10.930;2022-11-11T03:54:30;1.70;99.90
13256;DHT22;37913;48.370;10.930;2022-11-11T03:57:05;1.60;99.90
13256;DHT22;37913;48.370;10.930;2022-11-11T03:59:49;1.60;99.90
13256;DHT22;37913;48.370;10.930;2022-11-11T04:02:18;1.60;99.90
13256;DHT22;37913;48.370;10.930;2022-11-11T04:05:02;1.70;99.90
13256;DHT22;37913;48.370;10.930;2022-11-11T04:07:49;1.80;99.90
13256;DHT22;37913;48.370;10.930;2022-11-11T04:10:34;1.90;99.90
13256;DHT22;37913;48.370;10.930;2022-11-11T04:13:01;2.20;99.90
13256;DHT22;37913;48.370;10.930;2022-11-11T04:15:46;2.40;99.90
13256;DHT22;37913;48.370;10.930;2022-11-11T04:18:33;2.50;99.90
13256;DHT22;37913;48.370;10.930;2022-11-11T04:21:18;2.40;99.90
13256;DHT22;37913;48.370;10.930;2022-11-11T04:24:03;2.40;99.90
13256;DHT22;37913;48.370;10.930;2022-11-11T04:26:52;2.40;99.90
13256;DHT22;37913;48.370;10.930;2022-11-11T04:29:17;2.40;99.90
13256;DHT22;37913;48.370;10.930;2022-11-11T04:31:59;2.40;99.90
13256;DHT22;37913;48.370;10.930;2022-11-11T04:34:46;2.30;99.90
13256;DHT22;37913;48.370;10.930;2022-11-11T04:37:14;2.30;99.90
13256;DHT22;37913;48.370;10.930;2022-11-11T04:39:41;2.20;99.90
13256;DHT22;37913;48.370;10.930;2022-11-11T04:42:26;2.10;99.90
13256;DHT22;37913;48.370;10.930;2022-11-11T04:44:53;2.00;99.90
13256;DHT22;37913;48.370;10.930;2022-11-11T04:47:38;2.00;99.90
13256;DHT22;37913;48.370;10.930;2022-11-11T04:50:19;2.00;99.90
13256;DHT22;37913;48.370;10.930;2022-11-11T04:52:45;2.00;99.90
13256;DHT22;37913;48.370;10.930;2022-11-11T04:55:13;2.00;99.90
13256;DHT22;37913;48.370;10.930;2022-11-11T04:57:58;2.00;99.90
13256;DHT22;37913;48.370;10.930;2022-11-11T05:00:24;2.00;99.90
13256;DHT22;37913;48.370;10.930;2022-11-11T05:02:53;2.00;99.90
13256;DHT22;37913;48.370;10.930;2022-11-11T05:05:39;2.10;99.90
13256;DHT22;37913;48.370;10.930;2022-11-11T05:08:23;2.20;99.90
13256;DHT22;37913;48.370;10.930;2022-11-11T05:11:07;2.20;99.90
13256;DHT22;37913;48.370;10.930;2022-11-11T05:13:34;2.30;99.90
13256;DHT22;37913;48.370;10.930;2022-11-11T05:16:21;2.40;99.90
13256;DHT22;37913;48.370;10.930;2022-11-11T05:19:09;2.40;99.90
13256;DHT22;37913;48.370;10.930;2022-11-11T05:21:56;2.40;99.90
13256;DHT22;37913;48.370;10.930;2022-11-11T05:24:25;2.40;99.90
13256;DHT22;37913;48.370;10.930;2022-11-11T05:27:09;2.40;99.90
13256;DHT22;37913;48.370;10.930;2022-11-11T05:29:36;2.30;99.90
13256;DHT22;37913;48.370;10.930;2022-11-11T05:32:04;2.30;99.90
13256;DHT22;37913;48.370;10.930;2022-11-11T05:34:32;2.20;99.90
13256;DHT22;37913;48.370;10.930;2022-11-11T05:37:01;2.20;99.90
13256;DHT22;37913;48.370;10.930;2022-11-11T05:39:27;2.30;99.90
13256;DHT22;37913;48.370;10.930;2022-11-11T05:41:54;2.20;99.90
13256;DHT22;37913;48.370;10.930;2022-11-11T05:44:21;2.20;99.90
13256;DHT22;37913;48.370;10.930;2022-11-11T05:46:48;2.20;99.90
13256;DHT22;37913;48.370;10.930;2022-11-11T05:49:15;2.20;99.90
13256;DHT22;37913;48.370;10.930;2022-11-11T05:51:42;2.20;99.90
13256;DHT22;37913;48.370;10.930;2022-11-11T05:54:11;2.20;99.90
13256;DHT22;37913;48.370;10.930;2022-11-11T05:56:38;2.10;99.90
13256;DHT22;37913;48.370;10.930;2022-11-11T05:59:06;2.10;99.90
13256;DHT22;37913;48.370;10.930;2022-11-11T06:01:33;2.00;99.90
13256;DHT22;37913;48.370;10.930;2022-11-11T06:04:00;2.00;99.90
13256;DHT22;37913;48.370;10.930;2022-11-11T06:06:27;1.90;99.90
13256;DHT22;37913;48.370;10.930;2022-11-11T06:08:54;1.90;99.90
13256;DHT22;37913;48.370;10.930;2022-11-11T06:11:23;1.80;99.90
13256;DHT22;37913;48.370;10.930;2022-11-11T06:13:50;1.70;99.90
13256;DHT22;37913;48.370;10.930;2022-11-11T06:16:17;1.60;99.90
13256;DHT22;37913;48.370;10.930;2022-11-11T06:18:44;1.60;99.90
13256;DHT22;37913;48.370;10.930;2022-11-11T06:21:11;2.00;99.90
13256;DHT22;37913;48.370;10.930;2022-11-11T06:23:38;1.50;99.90
13256;DHT22;37913;48.370;10.930;2022-11-11T06:26:05;1.60;99.90
13256;DHT22;37913;48.370;10.930;2022-11-11T06:28:44;1.60;99.90
13256;DHT22;37913;48.370;10.930;2022-11-11T06:31:13;1.50;99.90
13256;DHT22;37913;48.370;10.930;2022-11-11T06:33:41;1.60;99.90
13256;DHT22;37913;48.370;10.930;2022-11-11T06:36:22;1.60;99.90
13256;DHT22;37913;48.370;10.930;2022-11-11T06:38:49;1.70;99.90
13256;DHT22;37913;48.370;10.930;2022-11-11T06:41:16;1.90;99.90
13256;DHT22;37913;48.370;10.930;2022-11-11T06:43:44;2.00;99.90
13256;DHT22;37913;48.370;10.930;2022-11-11T06:46:21;2.10;99.90
13256;DHT22;37913;48.370;10.930;2022-11-11T06:48:48;2.20;99.90
13256;DHT22;37913;48.370;10.930;2022-11-11T06:51:16;2.30;99.90
13256;DHT22;37913;48.370;10.930;2022-11-11T06:53:43;2.40;99.90
13256;DHT22;37913;48.370;10.930;2022-11-11T06:56:10;2.50;99.90
13256;DHT22;37913;48.370;10.930;2022-11-11T06:58:37;2.90;99.90
13256;DHT22;37913;48.370;10.930;2022-11-11T07:01:07;2.50;99.90
13256;DHT22;37913;48.370;10.930;2022-11-11T07:03:34;2.40;99.90
13256;DHT22;37913;48.370;10.930;2022-11-11T07:06:03;2.50;99.90
13256;DHT22;37913;48.370;10.930;2022-11-11T07:08:31;2.40;99.90
13256;DHT22;37913;48.370;10.930;2022-11-11T07:10:58;2.70;99.90
13256;DHT22;37913;48.370;10.930;2022-11-11T07:13:25;2.90;99.90
13256;DHT22;37913;48.370;10.930;2022-11-11T07:15:52;2.60;99.90
13256;DHT22;37913;48.370;10.930;2022-11-11T07:18:20;2.70;99.90
13256;DHT22;37913;48.370;10.930;2022-11-11T07:20:47;2.70;99.90
13256;DHT22;37913;48.370;10.930;2022-11-11T07:23:14;3.80;99.90
13256;DHT22;37913;48.370;10.930;2022-11-11T07:25:42;3.00;99.90
13256;DHT22;37913;48.370;10.930;2022-11-11T07:28:09;3.10;99.90
13256;DHT22;37913;48.370;10.930;2022-11-11T07:30:36;3.30;99.90
13256;DHT22;37913;48.370;10.930;2022-11-11T07:33:03;3.50;99.90
13256;DHT22;37913;48.370;10.930;2022-11-11T07:35:32;3.70;99.90
13256;DHT22;37913;48.370;10.930;2022-11-11T07:37:58;3.90;99.90
13256;DHT22;37913;48.370;10.930;2022-11-11T07:40:25;4.10;99.90
13256;DHT22;37913;48.370;10.930;2022-11-11T07:42:52;4.20;99.90
13256;DHT22;37913;48.370;10.930;2022-11-11T07:45:19;4.30;99.90
13256;DHT22;37913;48.370;10.930;2022-11-11T07:47:46;4.40;99.90
13256;DHT22;37913;48.370;10.930;2022-11-11T07:52:47;4.80;99.90
13256;DHT22;37913;48.370;10.930;2022-11-11T07:55:14;4.80;99.90
13256;DHT22;37913;48.370;10.930;2022-11-11T07:57:41;4.40;99.90
13256;DHT22;37913;48.370;10.930;2022-11-11T08:00:09;4.30;99.90
13256;DHT22;37913;48.370;10.930;2022-11-11T08:02:36;4.50;99.90
13256;DHT22;37913;48.370;10.930;2022-11-11T08:05:03;4.80;99.90
13256;DHT22;37913;48.370;10.930;2022-11-11T08:07:33;5.10;99.90
13256;DHT22;37913;48.370;10.930;2022-11-11T08:10:01;5.00;99.90
13256;DHT22;37913;48.370;10.930;2022-11-11T08:12:28;5.30;99.90
13256;DHT22;37913;48.370;10.930;2022-11-11T08:15:12;5.50;99.90
13256;DHT22;37913;48.370;10.930;2022-11-11T08:17:39;5.50;99.90
13256;DHT22;37913;48.370;10.930;2022-11-11T08:20:08;4.80;99.90
13256;DHT22;37913;48.370;10.930;2022-11-11T08:22:36;4.80;99.90
13256;DHT22;37913;48.370;10.930;2022-11-11T08:25:06;4.90;99.90
13256;DHT22;37913;48.370;10.930;2022-11-11T08:27:33;5.40;99.90
13256;DHT22;37913;48.370;10.930;2022-11-11T08:30:01;5.40;99.90
13256;DHT22;37913;48.370;10.930;2022-11-11T08:32:27;5.40;99.90
13256;DHT22;37913;48.370;10.930;2022-11-11T08:34:54;5.30;99.90
13256;DHT22;37913;48.370;10.930;2022-11-11T08:37:21;5.20;99.90
13256;DHT22;37913;48.370;10.930;2022-11-11T08:39:48;4.90;99.90
13256;DHT22;37913;48.370;10.930;2022-11-11T08:42:18;5.00;99.90
13256;DHT22;37913;48.370;10.930;2022-11-11T08:44:45;5.00;99.90
13256;DHT22;37913;48.370;10.930;2022-11-11T08:47:12;5.00;99.90
13256;DHT22;37913;48.370;10.930;2022-11-11T08:49:39;5.10;99.90
13256;DHT22;37913;48.370;10.930;2022-11-11T08:52:06;5.20;99.90
13256;DHT22;37913;48.370;10.930;2022-11-11T08:54:33;5.10;99.90
13256;DHT22;37913;48.370;10.930;2022-11-11T08:57:00;5.20;99.90
13256;DHT22;37913;48.370;10.930;2022-11-11T08:59:28;5.10;99.90
13256;DHT22;37913;48.370;10.930;2022-11-11T09:01:55;5.30;99.90
13256;DHT22;37913;48.370;10.930;2022-11-11T09:04:22;5.40;99.90
13256;DHT22;37913;48.370;10.930;2022-11-11T09:06:49;5.40;99.90
13256;DHT22;37913;48.370;10.930;2022-11-11T09:09:16;5.70;99.90
13256;DHT22;37913;48.370;10.930;2022-11-11T09:11:43;6.00;99.90
13256;DHT22;37913;48.370;10.930;2022-11-11T09:14:10;6.40;99.90
13256;DHT22;37913;48.370;10.930;2022-11-11T09:16:38;6.90;99.90
13256;DHT22;37913;48.370;10.930;2022-11-11T09:19:05;7.40;99.90
13256;DHT22;37913;48.370;10.930;2022-11-11T09:21:32;8.10;99.90
13256;DHT22;37913;48.370;10.930;2022-11-11T09:23:59;8.60;99.90
13256;DHT22;37913;48.370;10.930;2022-11-11T09:26:26;8.60;99.90
13256;DHT22;37913;48.370;10.930;2022-11-11T09:28:53;7.90;99.90
13256;DHT22;37913;48.370;10.930;2022-11-11T09:31:19;8.40;99.90
13256;DHT22;37913;48.370;10.930;2022-11-11T09:33:48;8.80;99.90
13256;DHT22;37913;48.370;10.930;2022-11-11T09:36:16;9.50;99.90
13256;DHT22;37913;48.370;10.930;2022-11-11T09:38:42;9.70;99.90
13256;DHT22;37913;48.370;10.930;2022-11-11T09:41:17;9.60;99.90
13256;DHT22;37913;48.370;10.930;2022-11-11T09:43:52;9.90;99.90
13256;DHT22;37913;48.370;10.930;2022-11-11T09:46:33;10.20;99.90
13256;DHT22;37913;48.370;10.930;2022-11-11T09:49:29;10.60;99.90
13256;DHT22;37913;48.370;10.930;2022-11-11T09:52:04;11.20;99.90
13256;DHT22;37913;48.370;10.930;2022-11-11T09:54:38;10.90;99.90
13256;DHT22;37913;48.370;10.930;2022-11-11T09:57:11;11.50;99.90
13256;DHT22;37913;48.370;10.930;2022-11-11T09:59:44;11.60;99.90
13256;DHT22;37913;48.370;10.930;2022-11-11T10:02:17;12.20;99.90
13256;DHT22;37913;48.370;10.930;2022-11-11T10:04:54;12.00;99.90
13256;DHT22;37913;48.370;10.930;2022-11-11T10:07:30;12.20;99.90
13256;DHT22;37913;48.370;10.930;2022-11-11T10:10:05;12.60;99.90
13256;DHT22;37913;48.370;10.930;2022-11-11T10:12:38;13.30;99.90
13256;DHT22;37913;48.370;10.930;2022-11-11T10:15:11;13.10;99.90
13256;DHT22;37913;48.370;10.930;2022-11-11T10:17:45;13.70;99.90
13256;DHT22;37913;48.370;10.930;2022-11-11T10:20:20;14.30;99.90
13256;DHT22;37913;48.370;10.930;2022-11-11T10:22:52;15.10;99.90
13256;DHT22;37913;48.370;10.930;2022-11-11T10:25:23;15.60;99.90
13256;DHT22;37913;48.370;10.930;2022-11-11T10:27:54;16.10;99.90
13256;DHT22;37913;48.370;10.930;2022-11-11T10:30:24;16.60;99.90
13256;DHT22;37913;48.370;10.930;2022-11-11T10:32:55;17.30;99.90
13256;DHT22;37913;48.370;10.930;2022-11-11T10:35:26;18.30;99.90
13256;DHT22;37913;48.370;10.930;2022-11-11T10:38:00;18.70;1.00
13256;DHT22;37913;48.370;10.930;2022-11-11T10:40:35;18.90;99.90
13256;DHT22;37913;48.370;10.930;2022-11-11T10:43:03;19.30;1.00
13256;DHT22;37913;48.370;10.930;2022-11-11T10:45:38;20.40;1.00
13256;DHT22;37913;48.370;10.930;2022-11-11T10:48:09;21.30;1.00
13256;DHT22;37913;48.370;10.930;2022-11-11T10:50:45;21.30;1.00
13256;DHT22;37913;48.370;10.930;2022-11-11T10:53:17;20.60;1.00
13256;DHT22;37913;48.370;10.930;2022-11-11T10:55:50;21.00;99.90
13256;DHT22;37913;48.370;10.930;2022-11-11T10:58:22;21.10;99.90
13256;DHT22;37913;48.370;10.930;2022-11-11T11:00:52;20.80;1.00
13256;DHT22;37913;48.370;10.930;2022-11-11T11:03:22;17.90;1.00
13256;DHT22;37913;48.370;10.930;2022-11-11T11:05:56;20.40;1.00
13256;DHT22;37913;48.370;10.930;2022-11-11T11:08:28;20.30;1.00
13256;DHT22;37913;48.370;10.930;2022-11-11T11:10:57;19.90;1.00
13256;DHT22;37913;48.370;10.930;2022-11-11T11:13:31;18.80;1.00
13256;DHT22;37913;48.370;10.930;2022-11-11T11:16:03;18.30;1.00
13256;DHT22;37913;48.370;10.930;2022-11-11T11:18:32;18.30;1.00
13256;DHT22;37913;48.370;10.930;2022-11-11T11:21:02;18.00;1.00
13256;DHT22;37913;48.370;10.930;2022-11-11T11:23:38;18.50;1.00
13256;DHT22;37913;48.370;10.930;2022-11-11T11:26:06;16.90;99.90
13256;DHT22;37913;48.370;10.930;2022-11-11T11:28:34;17.00;99.90
13256;DHT22;37913;48.370;10.930;2022-11-11T11:31:03;17.10;99.90
13256;DHT22;37913;48.370;10.930;2022-11-11T11:33:51;17.00;99.90
13256;DHT22;37913;48.370;10.930;2022-11-11T11:36:20;17.30;99.90
13256;DHT22;37913;48.370;10.930;2022-11-11T11:38:48;17.80;99.90
13256;DHT22;37913;48.370;10.930;2022-11-11T11:41:16;18.30;99.90
13256;DHT22;37913;48.370;10.930;2022-11-11T11:43:44;18.90;99.90
13256;DHT22;37913;48.370;10.930;2022-11-11T11:46:18;19.00;99.90
13256;DHT22;37913;48.370;10.930;2022-11-11T11:48:58;19.40;99.90
13256;DHT22;37913;48.370;10.930;2022-11-11T11:51:37;19.50;99.90
13256;DHT22;37913;48.370;10.930;2022-11-11T11:54:20;19.30;99.90
13256;DHT22;37913;48.370;10.930;2022-11-11T11:56:53;19.20;99.90
13256;DHT22;37913;48.370;10.930;2022-11-11T11:59:25;19.70;99.90
13256;DHT22;37913;48.370;10.930;2022-11-11T12:01:59;20.20;99.90
13256;DHT22;37913;48.370;10.930;2022-11-11T12:04:51;20.30;99.90
13256;DHT22;37913;48.370;10.930;2022-11-11T12:07:31;20.70;99.90
13256;DHT22;37913;48.370;10.930;2022-11-11T12:10:09;21.50;99.90
13256;DHT22;37913;48.370;10.930;2022-11-11T12:12:47;23.10;99.90
13256;DHT22;37913;48.370;10.930;2022-11-11T12:15:30;24.80;99.90
13256;DHT22;37913;48.370;10.930;2022-11-11T12:18:17;24.50;99.90
13256;DHT22;37913;48.370;10.930;2022-11-11T12:20:51;24.20;99.90
13256;DHT22;37913;48.370;10.930;2022-11-11T12:23:53;24.50;99.90
13256;DHT22;37913;48.370;10.930;2022-11-11T12:26:26;24.70;99.90
13256;DHT22;37913;48.370;10.930;2022-11-11T12:29:06;25.40;99.90
13256;DHT22;37913;48.370;10.930;2022-11-11T12:31:47;26.00;99.90
13256;DHT22;37913;48.370;10.930;2022-11-11T12:34:23;26.00;99.90
13256;DHT22;37913;48.370;10.930;2022-11-11T12:37:01;26.30;99.90
13256;DHT22;37913;48.370;10.930;2022-11-11T12:39:48;27.40;99.90
13256;DHT22;37913;48.370;10.930;2022-11-11T12:42:25;28.60;99.90
13256;DHT22;37913;48.370;10.930;2022-11-11T12:45:01;29.70;99.90
13256;DHT22;37913;48.370;10.930;2022-11-11T12:47:38;29.80;99.90
13256;DHT22;37913;48.370;10.930;2022-11-11T12:50:17;28.60;99.90
13256;DHT22;37913;48.370;10.930;2022-11-11T12:52:57;27.60;99.90
13256;DHT22;37913;48.370;10.930;2022-11-11T12:55:33;27.70;99.90
13256;DHT22;37913;48.370;10.930;2022-11-11T12:58:11;28.60;99.90
13256;DHT22;37913;48.370;10.930;2022-11-11T13:00:56;29.30;99.90
13256;DHT22;37913;48.370;10.930;2022-11-11T13:03:38;28.90;99.90
13256;DHT22;37913;48.370;10.930;2022-11-11T13:06:19;28.40;99.90
13256;DHT22;37913;48.370;10.930;2022-11-11T13:09:11;26.90;99.90
13256;DHT22;37913;48.370;10.930;2022-11-11T13:11:49;25.60;99.90
13256;DHT22;37913;48.370;10.930;2022-11-11T13:14:32;24.80;99.90
13256;DHT22;37913;48.370;10.930;2022-11-11T13:17:05;25.20;99.90
13256;DHT22;37913;48.370;10.930;2022-11-11T13:19:38;24.50;99.90
13256;DHT22;37913;48.370;10.930;2022-11-11T13:22:14;24.00;99.90
13256;DHT22;37913;48.370;10.930;2022-11-11T13:24:43;24.20;99.90
13256;DHT22;37913;48.370;10.930;2022-11-11T13:27:16;23.90;99.90
13256;DHT22;37913;48.370;10.930;2022-11-11T13:30:00;24.40;99.90
13256;DHT22;37913;48.370;10.930;2022-11-11T13:32:33;26.50;99.90
13256;DHT22;37913;48.370;10.930;2022-11-11T13:35:08;28.30;99.90
13256;DHT22;37913;48.370;10.930;2022-11-11T13:37:38;29.80;99.90
13256;DHT22;37913;48.370;10.930;2022-11-11T13:40:08;29.30;99.90
13256;DHT22;37913;48.370;10.930;2022-11-11T13:42:49;28.70;99.90
13256;DHT22;37913;48.370;10.930;2022-11-11T13:45:23;27.70;99.90
13256;DHT22;37913;48.370;10.930;2022-11-11T13:47:54;26.00;99.90
13256;DHT22;37913;48.370;10.930;2022-11-11T13:50:25;23.30;99.90
13256;DHT22;37913;48.370;10.930;2022-11-11T13:52:57;21.50;99.90
13256;DHT22;37913;48.370;10.930;2022-11-11T13:55:30;20.30;99.90
13256;DHT22;37913;48.370;10.930;2022-11-11T13:58:00;19.30;99.90
13256;DHT22;37913;48.370;10.930;2022-11-11T14:00:30;18.60;99.90
13256;DHT22;37913;48.370;10.930;2022-11-11T14:03:32;18.20;99.90
13256;DHT22;37913;48.370;10.930;2022-11-11T14:06:28;18.40;99.90
13256;DHT22;37913;48.370;10.930;2022-11-11T14:08:55;17.90;99.90
13256;DHT22;37913;48.370;10.930;2022-11-11T14:11:29;18.10;99.90
13256;DHT22;37913;48.370;10.930;2022-11-11T14:17:19;18.90;99.90
13256;DHT22;37913;48.370;10.930;2022-11-11T14:19:47;19.40;99.90
13256;DHT22;37913;48.370;10.930;2022-11-11T14:22:28;19.00;99.90
13256;DHT22;37913;48.370;10.930;2022-11-11T14:25:08;18.30;99.90
13256;DHT22;37913;48.370;10.930;2022-11-11T14:27:43;17.70;99.90
13256;DHT22;37913;48.370;10.930;2022-11-11T14:30:36;17.40;99.90
13256;DHT22;37913;48.370;10.930;2022-11-11T14:33:09;17.40;99.90
13256;DHT22;37913;48.370;10.930;2022-11-11T14:35:46;17.50;99.90
13256;DHT22;37913;48.370;10.930;2022-11-11T14:38:41;16.70;99.90
13256;DHT22;37913;48.370;10.930;2022-11-11T14:41:37;16.60;99.90
13256;DHT22;37913;48.370;10.930;2022-11-11T14:44:38;16.40;99.90
13256;DHT22;37913;48.370;10.930;2022-11-11T14:47:23;16.10;99.90
13256;DHT22;37913;48.370;10.930;2022-11-11T14:49:51;15.40;99.90
13256;DHT22;37913;48.370;10.930;2022-11-11T14:52:29;14.60;99.90
13256;DHT22;37913;48.370;10.930;2022-11-11T14:55:09;13.50;99.90
13256;DHT22;37913;48.370;10.930;2022-11-11T14:57:38;12.60;1.00
13256;DHT22;37913;48.370;10.930;2022-11-11T15:00:11;12.00;99.90
13256;DHT22;37913;48.370;10.930;2022-11-11T15:02:46;11.50;1.00
13256;DHT22;37913;48.370;10.930;2022-11-11T15:05:19;10.90;96.90
13256;DHT22;37913;48.370;10.930;2022-11-11T15:07:59;10.40;56.20
13256;DHT22;37913;48.370;10.930;2022-11-11T15:10:55;10.00;1.00
13256;DHT22;37913;48.370;10.930;2022-11-11T15:14:02;9.70;99.90
13256;DHT22;37913;48.370;10.930;2022-11-11T15:16:41;9.40;1.00
13256;DHT22;37913;48.370;10.930;2022-11-11T15:19:29;9.00;99.90
13256;DHT22;37913;48.370;10.930;2022-11-11T15:22:25;8.80;99.90
13256;DHT22;37913;48.370;10.930;2022-11-11T15:25:00;8.60;1.00
13256;DHT22;37913;48.370;10.930;2022-11-11T15:27:37;8.20;1.00
13256;DHT22;37913;48.370;10.930;2022-11-11T15:30:13;8.10;1.00
13256;DHT22;37913;48.370;10.930;2022-11-11T15:32:51;8.10;1.00
13256;DHT22;37913;48.370;10.930;2022-11-11T15:35:31;8.70;1.00
13256;DHT22;37913;48.370;10.930;2022-11-11T15:38:01;7.90;1.00
13256;DHT22;37913;48.370;10.930;2022-11-11T15:40:40;8.00;1.00
13256;DHT22;37913;48.370;10.930;2022-11-11T15:43:13;7.70;1.00
13256;DHT22;37913;48.370;10.930;2022-11-11T15:45:41;7.60;1.00
13256;DHT22;37913;48.370;10.930;2022-11-11T15:48:16;7.60;8.30
13256;DHT22;37913;48.370;10.930;2022-11-11T15:50:46;7.50;27.10
13256;DHT22;37913;48.370;10.930;2022-11-11T15:53:14;7.50;42.80
13256;DHT22;37913;48.370;10.930;2022-11-11T15:55:52;7.40;61.10
13256;DHT22;37913;48.370;10.930;2022-11-11T15:58:25;7.40;91.00
13256;DHT22;37913;48.370;10.930;2022-11-11T16:00:53;7.40;99.90
13256;DHT22;37913;48.370;10.930;2022-11-11T16:03:24;7.30;99.90
13256;DHT22;37913;48.370;10.930;2022-11-11T16:05:54;7.20;99.90
13256;DHT22;37913;48.370;10.930;2022-11-11T16:08:21;7.20;99.90
13256;DHT22;37913;48.370;10.930;2022-11-11T16:10:54;7.10;99.90